EW2348 Weather Reports


Display with metric or nautical units.
time (UTC)temp
F
wind
direction
speed
MPH
gust
MPH
rain 1hr
in
rain 24hr
in
rain mn
in
humidity
%
barometer
mb
20170722123425 78 100 1.0 3.0 0.00 1.94 0.00 99 1005.2
20170722123326 78 105 1.0 3.0 0.00 1.94 0.00 99 1005.3
20170722123225 78 100 1.0 3.0 0.00 1.94 0.00 99 1005.4
20170722123125 78 96 1.0 3.0 0.00 1.94 0.00 99 1005.3
20170722123025 78 97 2.0 3.0 0.00 1.94 0.00 99 1005.4
20170722122925 78 98 2.0 3.0 0.00 1.94 0.00 99 1005.1
20170722122826 78 99 1.0 2.0 0.00 1.94 0.00 99 1005.5
20170722122725 78 100 1.0 2.0 0.00 1.94 0.00 99 1005.5
20170722122625 77 102 1.0 2.0 0.00 1.94 0.00 99 1005.4
20170722122425 78 105 1.0 2.0 0.00 1.94 0.00 99 1005.5
20170722122326 78 94 1.0 1.0 0.00 1.94 0.00 99 1005.4
20170722122025 78 90 1.0 1.0 0.00 1.94 0.00 99 1005.3
20170722121925 77 90 0.0 1.0 0.00 1.94 0.00 99 1005.4
20170722121726 77 181 0.0 2.0 0.00 1.94 0.00 99 1005.3
20170722121325 77 181 0.0 2.0 0.00 1.94 0.00 99 1005.4
20170722121126 77 181 0.0 2.0 0.00 1.94 0.00 99 1005.5
20170722120825 77 181 1.0 2.0 0.00 1.94 0.00 99 1005.6
20170722120626 76 0 0.0 0.0 0.00 1.94 0.00 99 1005.2
20170722120525 76 1 0.0 3.0 0.00 1.94 0.00 99 1005.4
20170722120425 76 1 0.0 3.0 0.00 1.94 0.00 99 1005.4
20170722120325 76 1 0.0 3.0 0.00 1.94 0.00 99 1005.7
20170722120126 76 343 0.0 3.0 0.00 1.94 0.00 99 1005.3
20170722115925 76 333 0.0 3.0 0.00 1.94 0.00 99 1005.3
20170722115825 76 333 0.0 3.0 0.00 1.94 0.00 99 1005.3
20170722115726 76 333 0.0 3.0 0.00 1.94 0.00 99 1005.2
20170722115525 76 326 1.0 3.0 0.00 1.94 0.00 99 1005.4
20170722115325 76 300 0.0 3.0 0.00 1.94 0.00 99 1005.3
20170722115225 76 289 1.0 3.0 0.00 1.94 0.00 99 1005.2
20170722115025 77 0 0.0 0.0 0.00 1.94 0.00 99 1005.4
20170722114925 77 0 0.0 0.0 0.00 1.94 0.00 99 1005.2
20170722114725 77 0 0.0 0.0 0.00 1.94 0.00 99 1005.2
20170722114626 77 0 0.0 0.0 0.00 1.94 0.00 99 1005.3
20170722113425 77 149 0.0 2.0 0.00 1.94 0.00 99 1004.9
20170722113226 77 158 0.0 2.0 0.00 1.94 0.00 99 1005.0
20170722113025 77 163 0.0 3.0 0.00 1.94 0.00 99 1005.0
20170722112926 77 161 1.0 3.0 0.00 1.94 0.00 99 1004.9
20170722112725 77 164 1.0 3.0 0.00 1.94 0.00 99 1004.7
20170722112625 77 162 0.0 3.0 0.00 1.94 0.00 99 1004.6
20170722112526 77 163 0.0 3.0 0.00 1.94 0.00 99 1004.9
20170722112325 77 161 1.0 3.0 0.00 1.94 0.00 99 1004.9
20170722111925 77 157 1.0 3.0 0.00 1.94 0.00 99 1004.7
20170722111725 77 153 1.0 5.0 0.00 1.94 0.00 99 1004.7
20170722111525 77 151 1.0 5.0 0.00 1.94 0.00 99 1004.8
20170722111325 77 153 2.0 5.0 0.00 1.94 0.00 99 1004.9
20170722111226 77 156 2.0 5.0 0.00 1.94 0.00 99 1004.8
20170722111125 77 149 2.0 5.0 0.00 1.94 0.00 99 1004.8
20170722110925 77 135 3.0 5.0 0.00 1.94 0.00 99 1004.7
20170722110825 77 131 3.0 4.0 0.00 1.94 0.00 99 1004.8
20170722110726 77 131 2.0 4.0 0.00 1.94 0.00 99 1004.8
20170722110626 77 132 2.0 4.0 0.00 1.94 0.00 99 1004.9
20170722110425 77 124 3.0 4.0 0.00 1.94 0.00 99 1004.8
20170722110226 77 126 2.0 4.0 0.00 1.94 0.00 99 1004.7
20170722110126 77 132 2.0 4.0 0.00 1.94 0.00 99 1004.9
20170722110025 77 132 1.0 4.0 0.00 1.94 0.00 99 1004.7
20170722105925 77 129 1.0 4.0 0.00 1.94 0.00 99 1004.5
20170722105825 76 134 1.0 4.0 0.00 1.94 0.00 99 1004.8
20170722105625 76 136 1.0 4.0 0.00 1.94 0.00 99 1004.7
20170722105525 76 139 1.0 4.0 0.00 1.94 0.00 99 1004.7
20170722105425 76 140 2.0 4.0 0.00 1.94 0.00 99 1004.8
20170722105226 76 136 2.0 4.0 0.00 1.94 0.00 99 1004.9
20170722105025 76 134 2.0 4.0 0.00 1.94 0.00 99 1004.8
20170722104925 76 139 1.0 4.0 0.00 1.94 0.00 99 1005.0
20170722104825 77 139 1.0 4.0 0.00 1.94 0.00 99 1004.8
20170722104725 76 144 3.0 4.0 0.00 1.94 0.00 99 1004.9
20170722104626 76 143 2.0 4.0 0.00 1.94 0.00 99 1004.8
20170722104525 76 135 2.0 4.0 0.00 1.94 0.00 99 1004.9
20170722104425 77 127 1.0 4.0 0.00 1.94 0.00 99 1004.7
20170722104125 76 118 1.0 5.0 0.00 1.94 0.00 99 1004.7
20170722104026 76 120 2.0 5.0 0.00 1.94 0.00 99 1004.7
20170722103825 76 118 2.0 5.0 0.00 1.94 0.00 99 1004.6
20170722103725 76 112 2.0 5.0 0.00 1.94 0.00 99 1004.6
20170722103525 76 115 2.0 5.0 0.00 1.94 0.00 99 1004.7
20170722103425 76 121 3.0 5.0 0.00 1.94 0.00 99 1004.7
20170722103326 76 119 2.0 5.0 0.00 1.94 0.00 99 1004.8
20170722103125 76 115 3.0 5.0 0.00 1.94 0.00 99 1004.9
20170722102825 76 109 3.0 6.0 0.00 1.94 0.00 99 1004.7
20170722102425 76 108 3.0 6.0 0.00 1.94 0.00 99 1004.6
20170722102125 76 106 3.0 6.0 0.00 1.94 0.00 99 1004.4
20170722102026 76 102 3.0 5.0 0.00 1.94 0.00 99 1004.4
20170722101926 76 101 3.0 6.0 0.00 1.94 0.00 99 1004.6
20170722101725 76 96 2.0 6.0 0.00 1.94 0.00 99 1004.4
20170722101625 76 100 2.0 6.0 0.00 1.94 0.00 99 1004.2
20170722101525 76 103 2.0 6.0 0.00 1.94 0.00 99 1004.4
20170722101426 76 103 3.0 6.0 0.00 1.94 0.00 99 1004.4
20170722101325 76 111 3.0 6.0 0.00 1.94 0.00 99 1004.5
20170722101225 76 114 3.0 6.0 0.00 1.94 0.00 99 1004.4
20170722101125 76 117 3.0 6.0 0.00 1.94 0.00 99 1004.3
20170722101025 76 122 3.0 6.0 0.00 1.94 0.00 99 1004.4
20170722100925 76 125 3.0 5.0 0.00 1.94 0.00 99 1004.3
20170722100826 76 122 1.0 6.0 0.00 1.94 0.00 99 1004.4
20170722100625 76 126 3.0 6.0 0.00 1.94 0.00 99 1004.4
20170722100525 76 126 3.0 6.0 0.00 1.94 0.00 99 1004.4
20170722100326 76 126 3.0 6.0 0.00 1.94 0.00 99 1004.6
20170722100225 76 127 3.0 6.0 0.00 1.94 0.00 99 1004.5
20170722100025 76 117 3.0 6.0 0.00 1.94 0.00 99 1004.4
20170722095925 76 110 4.0 6.0 0.00 1.94 0.00 99 1004.4
20170722095826 76 110 4.0 6.0 0.00 1.94 0.00 99 1004.4
20170722095725 76 110 3.0 5.0 0.00 1.94 0.00 99 1004.4
20170722095625 76 105 3.0 5.0 0.00 1.94 0.00 99 1004.4
20170722095425 76 94 3.0 6.0 0.00 1.94 0.00 99 1004.4
20170722095025 76 88 3.0 6.0 0.00 1.94 0.00 99 1004.4
20170722094925 76 94 4.0 6.0 0.00 1.94 0.00 99 1004.4
20170722094825 76 96 3.0 6.0 0.00 1.94 0.00 99 1004.5
20170722094725 76 97 4.0 6.0 0.00 1.94 0.00 99 1004.5
20170722094625 76 94 2.0 6.0 0.00 1.94 0.00 99 1004.5
20170722094525 76 99 2.0 6.0 0.00 1.94 0.00 99 1004.5
20170722094425 76 95 3.0 6.0 0.00 1.94 0.00 99 1004.3
20170722094325 76 92 3.0 6.0 0.00 1.94 0.00 99 1004.6
20170722094225 76 96 1.0 6.0 0.00 1.94 0.00 99 1004.4
20170722094125 76 101 2.0 6.0 0.00 1.94 0.00 99 1004.7
20170722093925 76 105 2.0 6.0 0.00 1.94 0.00 99 1004.6
20170722093825 76 108 3.0 6.0 0.00 1.94 0.00 99 1004.6
20170722093725 76 110 4.0 6.0 0.00 1.94 0.00 99 1004.7
20170722093526 76 114 3.0 4.0 0.00 1.94 0.00 99 1004.6
20170722093425 76 114 1.0 4.0 0.00 1.94 0.00 99 1004.6
20170722093226 76 107 2.0 4.0 0.00 1.94 0.00 99 1004.5
20170722093025 76 93 1.0 4.0 0.00 1.94 0.00 99 1004.9
20170722092925 76 93 2.0 4.0 0.00 1.94 0.00 99 1004.7
20170722092825 76 88 1.0 4.0 0.00 1.94 0.00 99 1004.7
20170722092625 76 90 1.0 4.0 0.00 1.94 0.00 99 1004.7
20170722092325 76 90 2.0 4.0 0.00 1.94 0.00 99 1004.5
20170722092225 76 90 3.0 4.0 0.00 1.94 0.00 99 1004.6
20170722092125 76 90 1.0 3.0 0.00 1.94 0.00 99 1004.9
20170722091925 76 94 1.0 3.0 0.00 1.94 0.00 99 1004.8
20170722091825 76 93 1.0 4.0 0.00 1.94 0.00 99 1004.8
20170722091726 76 90 3.0 4.0 0.00 1.94 0.00 99 1004.6
20170722091525 76 94 1.0 4.0 0.00 1.94 0.00 99 1004.8
20170722091325 76 91 1.0 4.0 0.00 1.94 0.00 99 1004.7
20170722091125 76 91 1.0 4.0 0.00 1.94 0.00 99 1004.7
20170722090725 76 90 1.0 3.0 0.00 1.94 0.00 99 1004.7
20170722090625 76 84 2.0 3.0 0.00 1.94 0.00 99 1004.7
20170722090525 76 80 1.0 3.0 0.00 1.94 0.00 99 1004.5
20170722090424 76 79 1.0 3.0 0.00 1.94 0.00 99 1004.7
20170722090025 76 79 1.0 3.0 0.00 1.94 0.00 99 1004.9
20170722085925 76 79 1.0 3.0 0.00 1.94 0.00 99 1004.7
20170722085825 76 77 2.0 3.0 0.00 1.94 0.00 99 1004.7
20170722085625 76 74 1.0 3.0 0.00 1.94 0.00 99 1004.6
20170722085525 76 76 1.0 3.0 0.00 1.94 0.00 99 1004.7
20170722085426 76 79 1.0 3.0 0.00 1.94 0.00 99 1004.6
20170722085025 76 78 1.0 3.0 0.00 1.94 0.00 99 1004.5
20170722084925 76 78 1.0 3.0 0.00 1.94 0.00 99 1004.6
20170722084725 76 85 0.0 3.0 0.00 1.94 0.00 99 1004.5
20170722084525 76 79 1.0 3.0 0.00 1.94 0.00 99 1004.6
20170722084425 76 80 1.0 3.0 0.00 1.94 0.00 99 1004.6
20170722084325 76 79 1.0 3.0 0.00 1.94 0.00 99 1004.7
20170722084225 76 78 0.0 3.0 0.00 1.94 0.00 99 1004.5
20170722084124 76 80 0.0 3.0 0.00 1.94 0.00 99 1004.6
20170722083925 76 77 2.0 3.0 0.00 1.94 0.00 99 1004.7
20170722083725 76 75 1.0 3.0 0.00 1.94 0.00 99 1004.6
20170722083625 76 77 2.0 3.0 0.00 1.94 0.00 99 1004.4
20170722083525 76 79 1.0 3.0 0.00 1.94 0.00 99 1004.5
20170722083425 76 79 1.0 3.0 0.00 1.94 0.00 99 1004.7
20170722083325 76 79 1.0 3.0 0.00 1.94 0.00 99 1004.6
20170722083225 76 84 1.0 3.0 0.00 1.94 0.00 99 1004.5
20170722083125 76 84 1.0 3.0 0.00 1.94 0.00 99 1004.5
20170722083025 76 84 1.0 3.0 0.00 1.94 0.00 99 1004.6
20170722082926 76 90 0.0 3.0 0.00 1.94 0.00 99 1004.4
20170722082825 76 90 0.0 3.0 0.00 1.94 0.00 99 1004.4
20170722082725 76 90 0.0 3.0 0.00 1.94 0.00 99 1004.8
20170722082525 76 93 0.0 3.0 0.00 1.94 0.00 99 1004.5
20170722082425 76 93 1.0 3.0 0.00 1.94 0.00 99 1004.6
20170722082326 76 87 1.0 3.0 0.00 1.94 0.00 99 1004.5
20170722082125 76 80 1.0 3.0 0.00 1.94 0.00 99 1004.5
20170722081827 76 81 0.0 3.0 0.00 1.94 0.00 99 1004.5
20170722081726 75 82 1.0 3.0 0.00 1.94 0.00 99 1004.4
20170722081625 76 79 1.0 3.0 0.00 1.94 0.00 99 1004.6
20170722081525 75 78 1.0 3.0 0.00 1.94 0.00 99 1004.5
20170722081225 75 86 1.0 3.0 0.00 1.94 0.00 99 1004.5
20170722080925 75 90 1.0 3.0 0.00 1.94 0.00 99 1004.5
20170722080825 75 90 1.0 3.0 0.00 1.94 0.00 99 1004.7
20170722080725 75 90 1.0 2.0 0.00 1.94 0.00 99 1004.7
20170722080625 75 90 0.0 1.0 0.00 1.94 0.00 99 1004.7
20170722080525 75 90 0.0 1.0 0.00 1.94 0.00 99 1004.8
20170722080425 75 90 0.0 1.0 0.00 1.94 0.00 99 1004.8
20170722080225 75 90 0.0 1.0 0.00 1.94 0.00 99 1004.7
20170722080125 75 90 0.0 1.0 0.00 1.94 0.00 99 1004.8
20170722080025 75 90 0.0 1.0 0.00 1.94 0.00 99 1004.9
20170722075926 75 90 0.0 1.0 0.00 1.94 0.00 99 1004.8
20170722075825 74 90 1.0 1.0 0.00 1.94 0.00 99 1004.8
20170722075725 74 0 0.0 0.0 0.00 1.94 0.00 99 1004.9
20170722075625 74 0 0.0 0.0 0.00 1.94 0.00 99 1004.7
20170722075525 75 0 0.0 0.0 0.00 1.94 0.00 99 1004.8
20170722075425 74 0 0.0 0.0 0.00 1.94 0.00 99 1004.8
20170722075325 74 0 0.0 0.0 0.00 1.94 0.00 99 1004.8
20170722075125 74 90 0.0 1.0 0.00 1.94 0.00 99 1004.8
20170722075025 75 90 0.0 1.0 0.00 1.94 0.00 99 1004.7
20170722074925 74 90 0.0 1.0 0.00 1.94 0.00 99 1004.7
20170722074625 74 75 0.0 1.0 0.00 1.94 0.00 99 1004.6
20170722074525 74 77 0.0 1.0 0.00 1.94 0.00 99 1004.8
20170722074426 74 82 0.0 1.0 0.00 1.94 0.00 99 1004.7
20170722074325 74 84 0.0 1.0 0.00 1.94 0.00 99 1004.6
20170722074225 74 85 0.0 1.0 0.00 1.94 0.00 99 1004.6
20170722074125 74 86 0.0 1.0 0.00 1.94 0.00 99 1004.6
20170722074024 74 87 0.0 2.0 0.00 1.94 0.00 99 1004.9
20170722073925 74 75 0.0 2.0 0.00 1.94 0.00 99 1004.8
20170722073825 74 81 0.0 3.0 0.00 1.94 0.00 99 1004.8
20170722073725 74 83 0.0 3.0 0.00 1.94 0.00 99 1004.7
20170722073625 75 83 0.0 3.0 0.00 1.94 0.00 99 1004.6
20170722073525 75 83 0.0 3.0 0.00 1.94 0.00 99 1004.8
20170722073424 75 83 0.0 3.0 0.00 1.94 0.00 99 1004.7
20170722073225 75 78 0.0 3.0 0.00 1.94 0.00 99 1004.6
20170722072925 75 84 1.0 3.0 0.00 1.94 0.00 99 1004.7
20170722072824 75 83 1.0 3.0 0.00 1.94 0.00 99 1004.7
20170722072725 75 82 1.0 2.0 0.00 1.94 0.00 99 1004.6
20170722072625 75 79 0.0 2.0 0.00 1.94 0.00 99 1004.8
20170722072525 75 75 1.0 2.0 0.00 1.94 0.00 99 1004.7
20170722072425 75 75 0.0 2.0 0.00 1.94 0.00 99 1004.7
20170722072325 75 81 1.0 2.0 0.00 1.94 0.00 99 1004.6
20170722072226 75 77 1.0 3.0 0.00 1.94 0.00 99 1004.7
20170722072125 75 77 1.0 3.0 0.00 1.94 0.00 99 1004.8
20170722071925 75 80 0.0 3.0 0.00 1.94 0.00 99 1005.0
20170722071825 75 78 0.0 3.0 0.00 1.94 0.00 99 1004.9
20170722071726 75 79 1.0 3.0 0.00 1.94 0.00 99 1004.8
20170722071625 75 83 1.0 3.0 0.00 1.94 0.00 99 1004.8
20170722071425 75 85 1.0 3.0 0.00 1.94 0.00 99 1004.8
20170722071125 75 88 1.0 3.0 0.00 1.94 0.00 99 1004.9
20170722070525 75 83 1.0 4.0 0.00 1.94 0.00 99 1004.8
20170722070425 75 84 2.0 4.0 0.00 1.94 0.00 99 1004.9
20170722070325 75 83 1.0 4.0 0.00 1.94 0.00 99 1005.0
20170722070125 75 79 1.0 4.0 0.00 1.94 0.00 99 1004.8
20170722070025 75 84 1.0 4.0 0.00 1.94 0.00 99 1004.8
20170722065925 75 86 2.0 4.0 0.00 1.94 0.00 99 1004.8
20170722065625 75 88 1.0 4.0 0.00 1.94 0.00 99 1004.8
20170722065425 75 85 0.0 4.0 0.00 1.94 0.00 99 1004.9
20170722064925 75 78 1.0 4.0 0.00 1.94 0.00 99 1005.0
20170722064825 75 77 1.0 4.0 0.00 1.94 0.00 99 1005.1
20170722064725 75 77 2.0 4.0 0.00 1.94 0.00 99 1005.0
20170722064625 75 72 1.0 4.0 0.00 1.94 0.00 99 1004.8
20170722064425 75 71 2.0 4.0 0.00 1.94 0.00 99 1005.1
20170722064325 75 75 2.0 5.0 0.00 1.94 0.00 99 1005.0
20170722064025 75 89 2.0 5.0 0.00 1.94 0.00 99 1004.9
20170722063825 75 90 1.0 5.0 0.00 1.94 0.00 99 1005.1
20170722063725 75 89 2.0 5.0 0.00 1.94 0.00 99 1004.9
20170722063625 75 88 1.0 5.0 0.00 1.94 0.00 99 1005.0
20170722063225 75 78 2.0 6.0 0.00 1.94 0.00 99 1005.4
20170722063125 75 77 2.0 6.0 0.00 1.94 0.00 99 1005.2
20170722063025 75 71 3.0 6.0 0.00 1.94 0.00 99 1005.2
20170722062925 75 68 2.0 6.0 0.00 1.94 0.00 99 1005.5
20170722062725 75 74 2.0 6.0 0.00 1.94 0.00 99 1005.2
20170722062425 75 80 3.0 6.0 0.00 1.94 0.00 99 1005.2
20170722062225 74 87 2.0 5.0 0.00 1.94 0.00 99 1005.4
20170722062124 74 88 1.0 5.0 0.00 1.94 0.00 99 1005.3
20170722062025 74 89 2.0 5.0 0.00 1.94 0.00 99 1005.2
20170722061925 74 90 2.0 5.0 0.00 1.94 0.00 99 1005.3
20170722061825 75 90 2.0 5.0 0.00 1.94 0.00 99 1005.1
20170722061725 74 83 2.0 5.0 0.00 1.94 0.00 99 1005.4
20170722061625 75 78 2.0 5.0 0.00 1.94 0.00 99 1005.4
20170722061526 74 77 3.0 5.0 0.00 1.94 0.00 99 1005.5
20170722061425 75 74 2.0 5.0 0.00 1.94 0.00 99 1005.4
20170722061325 75 69 2.0 5.0 0.00 1.94 0.00 99 1005.6
20170722061225 75 64 3.0 5.0 0.00 1.94 0.00 99 1005.4
20170722060925 75 53 2.0 5.0 0.00 1.94 0.00 99 1005.7
20170722060725 75 50 2.0 5.0 0.00 1.94 0.00 99 1005.5
20170722060525 74 57 3.0 5.0 0.00 1.94 0.00 99 1005.5
20170722060426 74 61 3.0 5.0 0.00 1.94 0.00 99 1005.8
20170722060325 74 62 3.0 5.0 0.00 1.94 0.00 99 1005.7
20170722060125 74 69 3.0 5.0 0.00 1.94 0.00 99 1005.6
20170722055825 74 76 3.0 5.0 0.00 1.94 0.00 99 1005.8
20170722055725 74 70 3.0 5.0 0.00 1.94 0.00 99 1005.7
20170722055525 74 62 3.0 5.0 0.00 1.94 0.00 99 1005.8
20170722055425 74 59 2.0 5.0 0.00 1.94 0.00 99 1005.9
20170722055325 74 65 1.0 5.0 0.00 1.94 0.00 99 1005.7
20170722055025 74 65 1.0 5.0 0.00 1.94 0.00 99 1005.8
20170722054925 75 65 3.0 5.0 0.00 1.94 0.00 99 1005.5
20170722054725 74 76 3.0 5.0 0.00 1.94 0.00 99 1005.7
20170722054625 74 87 2.0 4.0 0.00 1.94 0.00 99 1005.8
20170722054525 74 86 2.0 4.0 0.00 1.94 0.00 99 1005.7
20170722054425 74 83 2.0 4.0 0.00 1.94 0.00 99 1006.0
20170722054325 74 76 3.0 4.0 0.00 1.94 0.00 99 1005.9
20170722054025 74 70 2.0 4.0 0.00 1.94 0.00 99 1006.0
20170722053925 74 67 1.0 4.0 0.00 1.94 0.00 99 1006.0
20170722053825 74 68 1.0 4.0 0.00 1.94 0.00 99 1006.0
20170722053525 75 54 1.0 4.0 0.00 1.94 0.00 99 1005.9
20170722053424 75 58 2.0 4.0 0.00 1.94 0.00 99 1005.8
20170722053325 75 63 1.0 4.0 0.00 1.94 0.00 99 1005.8
20170722053225 75 66 1.0 5.0 0.00 1.94 0.00 99 1005.9
20170722052925 75 67 1.0 5.0 0.00 1.94 0.00 99 1005.7
20170722052824 75 68 2.0 5.0 0.00 1.94 0.00 99 1006.0
20170722052625 75 62 2.0 5.0 0.00 1.94 0.00 99 1005.8
20170722052224 74 76 3.0 5.0 0.00 1.94 0.00 99 1006.0
20170722052125 74 81 2.0 5.0 0.00 1.94 0.00 99 1006.0
20170722051825 74 74 2.0 5.0 0.00 1.94 0.00 99 1006.1
20170722051625 74 82 3.0 6.0 0.00 1.94 0.00 99 1006.1
20170722051525 74 77 3.0 6.0 0.00 1.94 0.00 99 1006.0
20170722051425 74 74 3.0 6.0 0.00 1.94 0.00 99 1006.3
20170722051325 74 69 3.0 6.0 0.00 1.94 0.00 99 1006.0
20170722051225 74 71 3.0 6.0 0.00 1.94 0.00 99 1006.1
20170722051125 74 70 2.0 6.0 0.00 1.94 0.00 99 1006.2
20170722051025 74 70 3.0 6.0 0.00 1.94 0.00 99 1006.2
20170722050925 74 72 3.0 6.0 0.00 1.94 0.00 99 1006.4
20170722050725 74 70 3.0 6.0 0.00 1.94 0.00 99 1006.5
20170722050525 74 69 2.0 4.0 0.00 1.94 0.00 99 1006.3
20170722050225 74 59 2.0 4.0 0.00 1.94 0.00 99 1006.4
20170722050027 74 52 1.0 4.0 0.00 1.94 0.00 99 1006.4
20170722045825 74 42 2.0 4.0 0.00 1.94 0.00 99 1006.4
20170722045725 74 44 1.0 4.0 0.00 1.94 0.00 99 1006.3
20170722045625 74 37 3.0 5.0 0.00 1.94 0.00 99 1006.4
20170722045524 74 38 3.0 5.0 0.00 1.94 0.00 99 1006.2
20170722045325 74 47 1.0 5.0 0.00 1.94 0.00 99 1006.5
20170722045125 74 52 1.0 5.0 0.00 1.94 0.00 99 1006.5
20170722044925 74 53 2.0 5.0 0.00 1.94 0.00 99 1006.4
20170722044825 74 66 2.0 5.0 0.00 1.94 0.00 99 1006.6
20170722044425 74 66 1.0 3.0 0.00 1.94 0.00 99 1006.6
20170722044325 74 68 1.0 3.0 0.00 1.94 0.00 99 1006.6
20170722044225 74 74 1.0 3.0 0.00 1.94 0.00 99 1006.6
20170722044125 74 80 1.0 3.0 0.00 1.94 0.00 99 1006.5
20170722044025 74 82 1.0 3.0 0.00 1.94 0.00 99 1006.6
20170722043925 74 74 2.0 3.0 0.00 1.94 0.00 99 1006.4
20170722043625 74 59 1.0 5.0 0.00 1.94 0.00 99 1006.6
20170722043525 74 54 1.0 5.0 0.00 1.94 0.00 99 1006.7
20170722043425 74 77 1.0 5.0 0.00 1.94 0.00 99 1006.5
20170722043225 74 81 1.0 5.0 0.00 1.94 0.00 99 1006.6
20170722043025 74 83 1.0 5.0 0.00 1.94 0.00 99 1006.7
20170722042825 74 95 1.0 3.0 0.00 1.94 0.00 99 1006.6
20170722042725 74 87 1.0 3.0 0.00 1.94 0.00 99 1006.7
20170722042625 74 88 1.0 3.0 0.00 1.94 0.00 99 1006.7
20170722042525 74 90 1.0 3.0 0.00 1.94 0.00 99 1006.7
20170722042425 74 76 1.0 3.0 0.00 1.94 0.00 99 1006.7
20170722042225 74 70 1.0 3.0 0.00 1.94 0.00 99 1006.8
20170722042125 74 98 0.0 3.0 0.00 1.94 0.00 99 1007.1
20170722041826 74 75 2.0 3.0 0.00 1.94 0.00 99 1007.1
20170722041725 74 97 1.0 3.0 0.00 1.94 0.00 99 1006.7
20170722041625 74 95 2.0 3.0 0.00 1.94 0.00 99 1006.9
20170722041525 74 93 1.0 3.0 0.00 1.94 0.00 99 1006.8
20170722040725 73 88 1.0 3.0 0.00 1.94 0.00 97 1006.9
20170722040525 73 83 1.0 3.0 0.00 1.94 0.00 97 1006.8
20170722040324 73 73 1.0 4.0 0.00 1.94 0.00 97 1007.0
20170722040225 73 70 1.0 4.0 0.00 1.94 0.00 97 1006.9
20170722040125 73 64 1.0 4.0 0.00 1.94 0.00 97 1006.9
20170722040027 73 54 1.0 4.0 0.00 1.94 1.94 97 1007.1
20170722035925 73 59 1.0 5.0 0.00 1.94 1.94 97 1006.7
20170722035825 73 62 1.0 5.0 0.00 1.94 1.94 97 1006.8
20170722035725 73 62 1.0 5.0 0.00 1.94 1.94 97 1006.8
20170722035625 73 64 1.0 5.0 0.00 1.94 1.94 97 1007.0
20170722035524 73 62 1.0 5.0 0.00 1.94 1.94 97 1007.0
20170722035425 73 71 2.0 5.0 0.00 1.94 1.94 97 1006.9
20170722035325 73 73 1.0 5.0 0.00 1.94 1.94 97 1006.9
20170722035225 73 78 1.0 5.0 0.00 1.94 1.94 97 1006.9
20170722035025 73 85 3.0 5.0 0.00 1.94 1.94 97 1006.9
20170722034924 73 83 2.0 5.0 0.00 1.94 1.94 97 1007.2
20170722034825 73 79 1.0 3.0 0.00 1.94 1.94 97 1007.1
20170722034725 73 73 1.0 3.0 0.00 1.94 1.94 97 1007.1
20170722034625 73 53 1.0 3.0 0.00 1.94 1.94 97 1007.0
20170722034525 73 62 1.0 3.0 0.00 1.94 1.94 97 1007.0
20170722034425 73 35 2.0 3.0 0.00 1.94 1.94 97 1007.1
20170722034324 73 44 1.0 3.0 0.00 1.94 1.94 97 1007.0
20170722034125 73 328 0.0 2.0 0.00 1.94 1.94 97 1007.0
20170722034025 73 338 0.0 2.0 0.00 1.94 1.94 97 1007.1
20170722033925 73 325 0.0 2.0 0.00 1.94 1.94 97 1007.1
20170722033825 73 325 0.0 2.0 0.00 1.94 1.94 97 1007.2
20170722033625 73 322 1.0 2.0 0.00 1.94 1.94 99 1007.0
20170722033525 73 329 0.0 1.0 0.00 1.94 1.94 97 1007.1
20170722033225 74 328 0.0 1.0 0.00 1.94 1.94 99 1007.3
20170722033124 74 331 0.0 1.0 0.00 1.94 1.94 99 1007.4
20170722033024 74 320 0.0 1.0 0.00 1.94 1.94 99 1007.4
20170722032925 74 338 0.0 1.0 0.00 1.94 1.94 99 1007.4
20170722032625 73 338 0.0 1.0 0.00 1.94 1.94 97 1007.2
20170722032525 73 1 0.0 1.0 0.00 1.94 1.94 97 1007.3
20170722032425 73 1 0.0 1.0 0.00 1.94 1.94 97 1007.3
20170722032325 73 1 1.0 1.0 0.00 1.94 1.94 99 1007.2
20170722032126 73 0 0.0 0.0 0.00 1.94 1.94 97 1007.1
20170722031825 73 270 0.0 1.0 0.00 1.94 1.94 97 1006.9
20170722031725 73 270 0.0 1.0 0.00 1.94 1.94 97 1006.9
20170722031625 73 270 0.0 1.0 0.00 1.94 1.94 99 1007.0
20170722031525 73 270 0.0 1.0 0.00 1.94 1.94 99 1007.1
20170722031425 73 270 0.0 1.0 0.00 1.94 1.94 97 1006.9
20170722031324 73 270 0.0 1.0 0.00 1.94 1.94 97 1006.9
20170722031125 73 348 0.0 1.0 0.00 1.94 1.94 97 1006.8
20170722031025 73 335 0.0 1.0 0.00 1.94 1.94 97 1006.7
20170722030925 73 330 0.0 1.0 0.00 1.94 1.94 97 1006.6
20170722030824 73 337 0.0 1.0 0.00 1.94 1.94 97 1006.7
20170722030725 73 337 0.0 1.0 0.00 1.94 1.94 97 1006.8
20170722030625 73 337 0.0 1.0 0.00 1.94 1.94 97 1006.7
20170722030525 73 337 0.0 1.0 0.00 1.94 1.94 97 1006.6
20170722030425 73 337 0.0 1.0 0.00 1.94 1.94 97 1006.6
20170722030125 73 291 1.0 1.0 0.00 1.94 1.94 97 1006.5
20170722030025 73 270 0.0 1.0 0.00 1.94 1.94 97 1006.5
20170722025925 73 270 0.0 1.0 0.00 1.94 1.94 97 1006.5
20170722025825 73 270 0.0 1.0 0.00 1.94 1.94 97 1006.6
20170722025725 73 270 0.0 1.0 0.00 1.94 1.94 97 1006.5
20170722025625 73 270 0.0 1.0 0.00 1.94 1.94 99 1006.6
20170722025525 74 270 0.0 1.0 0.00 1.94 1.94 99 1006.6
20170722025425 74 270 0.0 1.0 0.00 1.94 1.94 99 1006.5
20170722025324 74 270 0.0 1.0 0.00 1.94 1.94 98 1006.2
20170722025125 74 270 0.0 1.0 0.00 1.94 1.94 97 1006.5
20170722025025 74 90 1.0 2.0 0.00 1.94 1.94 97 1006.5
20170722024925 74 90 0.0 3.0 0.00 1.94 1.94 96 1006.2
20170722024624 74 90 0.0 3.0 0.00 1.94 1.94 96 1006.3
20170722024425 74 90 0.0 3.0 0.00 1.94 1.94 97 1006.3
20170722024325 74 87 0.0 3.0 0.00 1.94 1.94 97 1006.3
20170722024225 75 87 0.0 3.0 0.00 1.94 1.94 97 1006.5
20170722024025 74 86 1.0 3.0 0.00 1.94 1.94 99 1006.3
20170722023825 74 85 1.0 3.0 0.00 1.94 1.94 99 1006.3
20170722023525 73 85 1.0 2.0 0.00 1.94 1.94 97 1006.3
20170722023424 73 84 1.0 2.0 0.00 1.94 1.94 97 1006.4
20170722023225 73 90 0.0 2.0 0.00 1.94 1.94 97 1006.3
20170722023125 73 90 0.0 2.0 0.00 1.94 1.94 97 1006.4
20170722023025 73 90 0.0 2.0 0.00 1.94 1.94 97 1006.2
20170722022925 73 90 1.0 2.0 0.00 1.94 1.94 96 1006.3
20170722022824 73 90 1.0 2.0 0.00 1.94 1.94 96 1006.4
20170722022625 73 90 1.0 2.0 0.00 1.94 1.94 96 1006.2
20170722022525 74 90 1.0 2.0 0.00 1.94 1.94 97 1006.2
20170722022425 74 90 1.0 2.0 0.00 1.94 1.94 97 1006.3
20170722022224 74 90 1.0 3.0 0.00 1.94 1.94 98 1006.3
20170722022125 73 90 1.0 3.0 0.00 1.94 1.94 97 1006.2
20170722022025 73 90 1.0 3.0 0.00 1.94 1.94 97 1006.2
20170722021925 73 90 1.0 3.0 0.00 1.94 1.94 97 1006.4
20170722021725 73 90 1.0 3.0 0.00 1.94 1.94 97 1006.5
20170722021425 73 90 1.0 3.0 0.00 1.94 1.94 97 1006.4
20170722021325 73 90 1.0 3.0 0.00 1.94 1.94 97 1006.4
20170722021225 73 90 1.0 3.0 0.00 1.94 1.94 97 1006.4
20170722021124 73 84 1.0 3.0 0.00 1.94 1.94 97 1006.4
20170722021025 73 83 0.0 3.0 0.00 1.94 1.94 97 1006.4
20170722020725 73 84 0.0 3.0 0.00 1.94 1.94 97 1006.2
20170722020625 73 80 0.0 3.0 0.00 1.94 1.94 97 1006.3
20170722020525 73 77 1.0 3.0 0.01 1.94 1.94 97 1006.4
20170722020225 74 60 1.0 3.0 0.01 1.94 1.94 99 1006.4
20170722020125 74 54 1.0 4.0 0.01 1.94 1.94 99 1006.6
20170722015925 73 54 2.0 4.0 0.01 1.94 1.94 99 1006.6
20170722015825 74 51 1.0 4.0 0.01 1.94 1.94 99 1006.5
20170722015725 74 47 1.0 4.0 0.01 1.94 1.94 99 1006.5
20170722015525 74 37 1.0 4.0 0.01 1.94 1.94 99 1006.5
20170722015425 74 31 1.0 4.0 0.01 1.94 1.94 99 1006.5
20170722015325 74 28 1.0 4.0 0.01 1.94 1.94 99 1006.4
20170722015024 74 5 3.0 4.0 0.01 1.94 1.94 99 1006.4
20170722014925 74 355 2.0 4.0 0.01 1.94 1.94 99 1006.4
20170722014825 74 348 1.0 4.0 0.01 1.94 1.94 99 1006.3
20170722014625 74 343 2.0 4.0 0.01 1.94 1.94 99 1006.3
20170722014524 74 339 1.0 4.0 0.01 1.94 1.94 99 1006.6
20170722014425 74 338 1.0 4.0 0.01 1.94 1.94 99 1006.5
20170722014225 74 341 1.0 4.0 0.01 1.94 1.94 99 1006.6
20170722014024 74 336 1.0 3.0 0.01 1.94 1.94 99 1006.6
20170722013725 74 16 1.0 3.0 0.01 1.94 1.94 99 1006.3
20170722013625 74 57 0.0 3.0 0.01 1.94 1.94 99 1006.4
20170722013525 74 54 0.0 3.0 0.01 1.94 1.94 99 1006.6
20170722013324 75 81 0.0 3.0 0.01 1.94 1.94 99 1006.6
20170722013225 74 84 1.0 4.0 0.01 1.94 1.94 99 1006.5
20170722013125 74 86 1.0 5.0 0.01 1.94 1.94 99 1006.5
20170722013025 74 88 1.0 5.0 0.01 1.94 1.94 99 1006.7
20170722012824 74 95 2.0 6.0 0.01 1.94 1.94 99 1006.8
20170722012724 74 102 3.0 6.0 0.01 1.94 1.94 99 1006.7
20170722012625 74 107 1.0 6.0 0.01 1.94 1.94 99 1006.9
20170722012525 74 104 3.0 6.0 0.01 1.94 1.94 99 1007.0
20170722012325 74 101 2.0 9.0 0.01 1.94 1.94 99 1006.7
20170722012225 74 98 4.0 9.0 0.01 1.94 1.94 99 1006.8
20170722012124 74 105 2.0 9.0 0.01 1.94 1.94 99 1006.8
20170722011825 74 97 2.0 10.0 0.05 1.94 1.94 99 1006.9
20170722011725 74 91 3.0 10.0 0.06 1.94 1.94 99 1007.1
20170722011525 74 88 4.0 11.0 0.07 1.94 1.94 99 1006.9
20170722011425 74 84 4.0 11.0 0.18 1.94 1.94 99 1006.9
20170722011325 74 87 5.0 11.0 0.20 1.94 1.94 99 1006.9
20170722011225 74 94 6.0 11.0 0.20 1.94 1.94 99 1007.1
20170722011024 74 93 5.0 17.0 0.28 1.94 1.94 99 1006.9
20170722010625 74 92 5.0 17.0 0.53 1.93 1.93 99 1006.8
20170722010325 74 95 5.0 17.0 0.60 1.93 1.93 99 1006.8
20170722010125 74 97 8.0 17.0 0.71 1.93 1.93 99 1006.8
20170722010025 74 98 9.0 17.0 0.83 1.93 1.93 99 1006.8
20170722005924 74 107 9.0 13.0 0.86 1.93 1.93 99 1006.8
20170722005727 74 122 7.0 12.0 0.96 1.93 1.93 99 1006.9
20170722005525 74 131 6.0 12.0 0.97 1.93 1.93 99 1007.0
20170722005325 74 140 8.0 11.0 1.06 1.93 1.93 99 1007.0
20170722005224 74 149 6.0 9.0 1.10 1.93 1.93 99 1006.9
20170722005124 74 149 6.0 9.0 1.13 1.93 1.93 99 1006.9
20170722005025 74 143 8.0 9.0 1.13 1.93 1.93 99 1007.0
20170722004925 74 140 5.0 9.0 1.23 1.93 1.93 99 1007.3
20170722004725 74 128 5.0 9.0 1.29 1.93 1.93 98 1007.3
20170722004524 75 109 3.0 9.0 1.36 1.93 1.93 97 1007.3
20170722004425 75 91 5.0 9.0 1.36 1.93 1.93 96 1007.4
20170722004325 75 81 5.0 9.0 1.37 1.93 1.93 96 1007.0
20170722004225 75 59 2.0 9.0 1.37 1.93 1.93 95 1007.2
20170722003524 74 17 5.0 9.0 1.39 1.93 1.93 98 1006.5
20170722003425 75 27 1.0 11.0 1.39 1.93 1.93 99 1006.4
20170722003325 74 4 2.0 11.0 1.39 1.93 1.93 99 1006.6
20170722003125 74 64 2.0 13.0 1.39 1.93 1.93 98 1006.2
20170722003024 74 71 2.0 15.0 1.39 1.93 1.93 97 1006.3
20170722002924 74 77 2.0 18.0 1.39 1.93 1.93 97 1006.1
20170722002825 74 69 1.0 18.0 1.39 1.93 1.93 97 1006.1
20170722002725 74 72 0.0 18.0 1.39 1.93 1.93 97 1006.2
20170722002625 74 69 3.0 18.0 1.39 1.93 1.93 98 1006.2
20170722002525 74 71 3.0 18.0 1.39 1.93 1.93 98 1006.1
20170722002125 74 95 9.0 18.0 1.39 1.93 1.93 98 1006.1
20170722001925 73 109 9.0 18.0 1.37 1.90 1.90 97 1006.1
20170722001725 73 112 8.0 17.0 1.35 1.88 1.88 97 1006.3
20170722001625 73 123 6.0 17.0 1.33 1.87 1.87 97 1006.4
20170722001524 73 138 7.0 17.0 1.30 1.83 1.83 97 1006.5
20170722001425 74 161 7.0 17.0 1.23 1.76 1.76 99 1006.9
20170722001225 73 209 5.0 11.0 1.18 1.71 1.71 97 1006.9
20170722001125 74 226 3.0 11.0 1.17 1.70 1.70 99 1006.8
20170722001025 73 243 5.0 8.0 1.12 1.65 1.65 97 1006.8
20170722000825 73 189 4.0 8.0 1.00 1.54 1.54 97 1007.3
20170722000725 73 184 2.0 8.0 0.94 1.48 1.48 97 1007.4
20170722000625 74 179 4.0 8.0 0.86 1.39 1.39 97 1007.1
20170722000424 74 139 4.0 7.0 0.79 1.32 1.32 96 1007.0
20170722000125 76 137 3.0 7.0 0.57 1.10 1.10 96 1007.7
20170721235925 77 166 2.0 7.0 0.53 1.06 1.06 95 1007.3
20170721235825 77 169 1.0 7.0 0.51 1.04 1.04 96 1007.1
20170721235724 78 184 1.0 5.0 0.44 0.97 0.97 96 1007.1
20170721235425 79 186 1.0 5.0 0.39 0.92 0.92 97 1006.7
20170721234925 81 242 3.0 4.0 0.17 0.70 0.70 94 1006.6
20170721234725 82 266 0.0 3.0 0.11 0.64 0.64 94 1006.5
20170721234625 82 265 1.0 3.0 0.08 0.61 0.61 94 1006.3
20170721234524 82 277 0.0 3.0 0.04 0.57 0.57 93 1006.2
20170721234424 82 276 1.0 3.0 0.04 0.57 0.57 93 1006.1
20170721234325 82 276 1.0 3.0 0.02 0.56 0.56 94 1006.1
20170721234225 83 277 1.0 3.0 0.02 0.56 0.56 94 1006.0
20170721233824 83 281 0.0 1.0 0.01 0.54 0.54 90 1006.0
20170721233625 84 336 0.0 2.0 0.00 0.53 0.53 89 1005.9
20170721233425 84 333 0.0 2.0 0.00 0.53 0.53 87 1006.0
20170721233224 85 333 0.0 2.0 0.00 0.53 0.53 87 1006.1
20170721233025 85 333 0.0 2.0 0.00 0.53 0.53 87 1006.0
20170721232925 85 325 0.0 2.0 0.00 0.53 0.53 87 1006.1
20170721232625 85 316 1.0 3.0 0.00 0.53 0.53 86 1006.0
20170721232525 86 317 1.0 3.0 0.00 0.53 0.53 86 1006.1
20170721232425 86 314 0.0 3.0 0.00 0.53 0.53 84 1006.2
20170721232324 86 316 0.0 3.0 0.00 0.53 0.53 84 1005.9
20170721232224 86 315 1.0 3.0 0.00 0.53 0.53 84 1006.0
20170721232125 86 310 0.0 3.0 0.00 0.53 0.53 81 1005.9
20170721232025 86 312 1.0 3.0 0.00 0.53 0.53 82 1005.9
20170721231825 87 315 1.0 3.0 0.00 0.53 0.53 81 1006.0
20170721231724 87 334 1.0 2.0 0.00 0.53 0.53 79 1005.9
20170721231525 87 343 1.0 2.0 0.00 0.53 0.53 78 1005.9
20170721231425 87 1 1.0 2.0 0.00 0.53 0.53 78 1005.9
20170721231025 88 337 0.0 2.0 0.00 0.53 0.53 76 1006.1
20170721230825 88 336 0.0 2.0 0.00 0.53 0.53 75 1006.0
20170721230725 88 322 0.0 2.0 0.00 0.53 0.53 75 1005.9
20170721230624 88 319 0.0 2.0 0.00 0.53 0.53 76 1006.2
20170721230425 87 322 0.0 2.0 0.00 0.53 0.53 74 1006.1
20170721230325 88 327 0.0 2.0 0.00 0.53 0.53 74 1006.0
20170721230224 87 328 1.0 2.0 0.00 0.53 0.53 73 1006.0
20170721230124 88 339 1.0 2.0 0.00 0.53 0.53 72 1006.0
20170721230025 88 337 1.0 2.0 0.00 0.53 0.53 72 1006.0
20170721225925 88 333 1.0 2.0 0.00 0.53 0.53 72 1006.0
20170721225625 89 354 1.0 2.0 0.00 0.53 0.53 73 1006.1
20170721225525 89 1 1.0 2.0 0.00 0.53 0.53 73 1006.0
20170721225424 88 1 0.0 2.0 0.00 0.53 0.53 73 1006.1
20170721225325 89 1 1.0 2.0 0.00 0.53 0.53 73 1006.1
20170721225125 89 1 0.0 1.0 0.00 0.53 0.53 76 1005.9
20170721225025 89 353 0.0 1.0 0.00 0.53 0.53 75 1006.2
20170721224925 88 328 0.0 1.0 0.00 0.53 0.53 75 1006.0
20170721224824 88 316 0.0 1.0 0.00 0.53 0.53 74 1006.0
20170721224724 88 303 0.0 1.0 0.00 0.53 0.53 74 1006.0
20170721224625 87 295 0.0 2.0 0.00 0.53 0.53 75 1005.9
20170721224525 87 289 1.0 2.0 0.00 0.53 0.53 73 1006.2
20170721224325 87 270 0.0 2.0 0.00 0.53 0.53 73 1006.0
20170721224224 88 270 0.0 2.0 0.00 0.53 0.53 72 1006.0
20170721224124 88 270 0.0 2.0 0.00 0.53 0.53 72 1006.2
20170721224025 88 270 0.0 2.0 0.00 0.53 0.53 70 1006.1
20170721223925 88 278 1.0 3.0 0.00 0.53 0.53 70 1006.2
20170721223725 88 282 0.0 3.0 0.00 0.53 0.53 69 1006.1
20170721223624 88 285 1.0 3.0 0.00 0.53 0.53 69 1006.3
20170721223325 89 301 1.0 3.0 0.00 0.53 0.53 70 1006.1
20170721223024 89 314 2.0 3.0 0.00 0.53 0.53 68 1006.1
20170721222924 89 308 1.0 3.0 0.00 0.53 0.53 67 1006.4
20170721222725 90 305 2.0 3.0 0.00 0.53 0.53 66 1006.1
20170721222525 89 311 1.0 3.0 0.00 0.53 0.53 68 1006.2
20170721222225 90 319 2.0 3.0 0.00 0.53 0.53 65 1006.3
20170721222125 90 312 1.0 3.0 0.00 0.53 0.53 65 1006.0
20170721221925 90 320 1.0 3.0 0.00 0.53 0.53 65 1006.2
20170721221724 89 336 1.0 3.0 0.00 0.53 0.53 65 1006.2
20170721221525 89 338 1.0 3.0 0.00 0.53 0.53 65 1006.2
20170721221224 91 346 1.0 3.0 0.00 0.53 0.53 65 1005.9
20170721220925 91 351 1.0 1.0 0.00 0.53 0.53 67 1006.3
20170721220825 90 341 0.0 3.0 0.00 0.53 0.53 67 1006.3
20170721220725 90 344 0.0 3.0 0.00 0.53 0.53 65 1006.4
20170721220524 89 2 0.0 3.0 0.00 0.53 0.53 64 1006.3
20170721220425 89 4 0.0 3.0 0.00 0.53 0.53 64 1006.1
20170721220325 89 4 0.0 3.0 0.00 0.53 0.53 64 1006.2
20170721220225 89 11 0.0 3.0 0.00 0.53 0.53 64 1006.2
20170721220024 89 30 0.0 3.0 0.00 0.53 0.53 64 1006.4
20170721215924 89 45 1.0 3.0 0.00 0.53 0.53 64 1006.3
20170721215825 90 46 1.0 3.0 0.00 0.53 0.53 64 1006.2
20170721215625 91 57 1.0 3.0 0.00 0.53 0.53 63 1006.4
20170721215524 92 41 1.0 3.0 0.00 0.53 0.53 66 1006.4
20170721215325 90 25 0.0 3.0 0.00 0.53 0.53 66 1006.5
20170721215125 89 351 1.0 3.0 0.00 0.53 0.53 66 1006.5
20170721215024 89 337 1.0 3.0 0.00 0.53 0.53 66 1006.5
20170721214925 89 335 1.0 3.0 0.00 0.53 0.53 67 1006.6
20170721214725 89 331 1.0 3.0 0.00 0.53 0.53 69 1006.4
20170721214624 89 328 1.0 3.0 0.00 0.53 0.53 68 1006.4
20170721214525 89 325 1.0 3.0 0.00 0.53 0.53 68 1006.4
20170721214224 89 319 1.0 3.0 0.00 0.53 0.53 67 1006.5
20170721213925 91 294 2.0 3.0 0.00 0.53 0.53 65 1006.5
20170721213724 91 297 1.0 3.0 0.00 0.53 0.53 66 1006.4
20170721213525 90 283 1.0 4.0 0.00 0.53 0.53 65 1006.5
20170721213425 89 279 1.0 4.0 0.00 0.53 0.53 65 1006.6
20170721213325 89 280 1.0 4.0 0.00 0.53 0.53 66 1006.6
20170721213224 90 276 2.0 5.0 0.00 0.53 0.53 65 1006.8
20170721213024 89 297 1.0 5.0 0.00 0.53 0.53 65 1006.8
20170721212725 89 293 1.0 5.0 0.00 0.53 0.53 65 1006.6
20170721212624 90 301 1.0 5.0 0.00 0.53 0.53 66 1006.7
20170721212524 90 306 0.0 5.0 0.00 0.53 0.53 66 1006.8
20170721212325 88 311 2.0 5.0 0.00 0.53 0.53 66 1006.8
20170721212125 90 306 2.0 3.0 0.00 0.53 0.53 65 1007.0
20170721212024 90 294 1.0 3.0 0.00 0.53 0.53 66 1007.0
20170721211924 90 282 1.0 3.0 0.00 0.53 0.53 67 1006.9
20170721211725 89 278 2.0 3.0 0.00 0.53 0.53 65 1006.9
20170721211625 90 282 1.0 3.0 0.00 0.53 0.53 65 1007.2
20170721211424 90 283 0.0 4.0 0.00 0.53 0.53 69 1007.1
20170721211324 89 291 0.0 4.0 0.00 0.53 0.53 68 1007.2
20170721211025 89 297 1.0 4.0 0.00 0.53 0.53 70 1007.3
20170721210824 88 309 1.0 4.0 0.00 0.53 0.53 68 1007.3
20170721210724 88 318 2.0 4.0 0.00 0.53 0.53 68 1007.3
20170721210425 89 323 2.0 5.0 0.00 0.53 0.53 67 1007.3
20170721210325 89 314 1.0 5.0 0.00 0.53 0.53 66 1007.2
20170721210025 89 313 1.0 5.0 0.00 0.53 0.53 68 1007.4
20170721205926 88 318 1.0 5.0 0.00 0.53 0.53 66 1007.3
20170721205824 90 316 3.0 5.0 0.00 0.53 0.53 65 1007.2
20170721205624 89 220 1.0 5.0 0.00 0.53 0.53 66 1007.3
20170721205525 91 190 2.0 5.0 0.00 0.53 0.53 67 1007.1
20170721205325 91 160 1.0 3.0 0.00 0.53 0.53 69 1007.5
20170721205225 91 150 0.0 3.0 0.00 0.53 0.53 66 1007.3
20170721204925 88 151 1.0 3.0 0.00 0.53 0.53 68 1007.5
20170721204824 88 173 1.0 3.0 0.00 0.53 0.53 68 1007.3
20170721204724 88 176 1.0 3.0 0.00 0.53 0.53 67 1007.2
20170721204624 87 175 1.0 3.0 0.00 0.53 0.53 69 1007.4
20170721204525 87 174 2.0 3.0 0.00 0.53 0.53 66 1007.5
20170721204224 92 275 1.0 3.0 0.00 0.53 0.53 60 1007.4
20170721204025 93 10 1.0 3.0 0.00 0.53 0.53 59 1007.4
20170721203824 93 61 1.0 3.0 0.00 0.53 0.53 64 1007.5
20170721203725 92 72 0.0 3.0 0.00 0.53 0.53 65 1007.4
20170721203324 90 336 0.0 3.0 0.00 0.53 0.53 62 1007.4
20170721203224 89 319 1.0 3.0 0.00 0.53 0.53 63 1007.3
20170721203125 90 304 3.0 3.0 0.00 0.53 0.53 65 1007.4
20170721203025 90 298 1.0 3.0 0.00 0.53 0.53 65 1007.3
20170721202924 90 316 1.0 3.0 0.00 0.53 0.53 66 1007.2
20170721202824 89 288 0.0 4.0 0.00 0.53 0.53 65 1007.3
20170721202724 88 5 0.0 4.0 0.00 0.53 0.53 64 1007.4
20170721202624 88 109 1.0 4.0 0.00 0.53 0.53 64 1007.0
20170721202425 90 116 1.0 4.0 0.00 0.53 0.53 65 1007.5
20170721202325 89 102 0.0 4.0 0.00 0.53 0.53 67 1007.5
20170721202224 88 97 1.0 4.0 0.00 0.53 0.53 68 1007.5
20170721202124 88 100 2.0 5.0 0.00 0.53 0.53 70 1007.5
20170721201924 87 102 1.0 5.0 0.00 0.53 0.53 66 1007.5
20170721201825 88 77 3.0 5.0 0.00 0.53 0.53 67 1007.5
20170721201725 88 69 3.0 5.0 0.00 0.53 0.53 66 1007.7
20170721201624 89 27 1.0 5.0 0.00 0.53 0.53 66 1007.6
20170721201524 89 357 1.0 5.0 0.00 0.53 0.53 64 1007.7
20170721201424 89 338 1.0 5.0 0.00 0.53 0.53 66 1007.3
20170721201324 89 325 1.0 5.0 0.00 0.53 0.53 67 1007.4
20170721201225 89 315 2.0 5.0 0.00 0.53 0.53 67 1007.6
20170721200824 89 316 2.0 3.0 0.00 0.53 0.53 68 1007.5
20170721200625 88 319 2.0 3.0 0.00 0.53 0.53 67 1007.6
20170721200525 88 328 2.0 4.0 0.00 0.53 0.53 67 1007.6
20170721200425 88 341 2.0 4.0 0.00 0.53 0.53 67 1007.6
20170721200324 88 344 2.0 5.0 0.00 0.53 0.53 67 1007.8
20170721200224 88 16 2.0 5.0 0.00 0.53 0.53 67 1007.7
20170721195825 88 67 1.0 5.0 0.00 0.53 0.53 65 1007.6
20170721195724 87 60 1.0 5.0 0.00 0.53 0.53 68 1007.4
20170721195525 87 55 3.0 5.0 0.00 0.53 0.53 70 1008.0
20170721195425 86 57 3.0 5.0 0.00 0.53 0.53 67 1007.7
20170721195025 88 87 1.0 7.0 0.00 0.53 0.53 66 1007.6
20170721194928 87 113 1.0 7.0 0.00 0.53 0.53 66 1008.0
20170721194824 87 116 1.0 7.0 0.00 0.53 0.53 69 1007.9
20170721194724 87 117 3.0 7.0 0.00 0.53 0.53 71 1007.8
20170721194624 87 121 0.0 7.0 0.00 0.53 0.53 71 1007.9
20170721194425 86 136 3.0 7.0 0.00 0.53 0.53 70 1007.8
20170721194324 86 132 3.0 7.0 0.00 0.53 0.53 71 1007.8
20170721194224 85 129 1.0 7.0 0.00 0.53 0.53 71 1008.0
20170721194124 85 129 3.0 7.0 0.00 0.53 0.53 69 1008.1
20170721193825 85 107 1.0 6.0 0.00 0.53 0.53 71 1007.8
20170721193625 87 112 3.0 6.0 0.00 0.53 0.53 70 1007.9
20170721193424 86 100 1.0 6.0 0.00 0.53 0.53 72 1008.0
20170721193225 85 96 1.0 6.0 0.00 0.53 0.53 69 1007.9
20170721193125 85 97 3.0 6.0 0.00 0.53 0.53 69 1008.0
20170721192924 86 93 1.0 5.0 0.00 0.53 0.53 71 1007.8
20170721192824 86 90 1.0 5.0 0.00 0.53 0.53 71 1008.1
20170721192725 85 90 1.0 5.0 0.00 0.53 0.53 73 1008.0
20170721192625 85 94 2.0 5.0 0.00 0.53 0.53 73 1008.2
20170721192525 85 99 1.0 5.0 0.00 0.53 0.53 74 1008.2
20170721192424 85 112 3.0 5.0 0.00 0.53 0.53 75 1008.0
20170721192324 86 114 3.0 5.0 0.00 0.53 0.53 75 1008.0
20170721192224 86 128 2.0 4.0 0.00 0.53 0.53 72 1007.7
20170721192125 86 144 1.0 4.0 0.00 0.53 0.53 75 1008.0
20170721192025 86 139 1.0 6.0 0.00 0.53 0.53 77 1008.0
20170721191924 85 130 1.0 6.0 0.00 0.53 0.53 75 1008.0
20170721191724 85 141 1.0 6.0 0.00 0.53 0.53 75 1008.0
20170721191625 84 147 0.0 6.0 0.00 0.53 0.53 75 1008.2
20170721191425 84 136 2.0 6.0 0.00 0.53 0.53 77 1008.1
20170721191224 84 141 1.0 6.0 0.00 0.53 0.53 74 1008.0
20170721191025 83 143 5.0 6.0 0.00 0.53 0.53 74 1008.1
20170721190925 84 153 2.0 4.0 0.00 0.53 0.53 74 1008.1
20170721190824 84 143 2.0 4.0 0.00 0.53 0.53 72 1008.2
20170721190624 85 116 1.0 4.0 0.00 0.53 0.53 73 1008.3
20170721190525 85 111 1.0 4.0 0.00 0.53 0.53 71 1008.1
20170721190425 86 99 2.0 4.0 0.00 0.53 0.53 72 1008.2
20170721190324 86 89 1.0 4.0 0.00 0.53 0.53 72 1008.0
20170721190224 86 84 0.0 4.0 0.00 0.53 0.53 72 1008.2
20170721190025 84 87 0.0 4.0 0.00 0.53 0.53 73 1008.2
20170721185925 83 88 2.0 4.0 0.00 0.53 0.53 74 1008.2
20170721185824 85 88 3.0 4.0 0.00 0.53 0.53 74 1008.3
20170721185725 85 87 1.0 4.0 0.00 0.53 0.53 73 1008.5
20170721185625 85 82 2.0 4.0 0.00 0.53 0.53 72 1008.4
20170721185525 85 83 1.0 4.0 0.00 0.53 0.53 71 1008.3
20170721185225 86 88 2.0 5.0 0.00 0.53 0.53 72 1008.4
20170721185125 85 90 1.0 5.0 0.00 0.53 0.53 71 1008.2
20170721184924 84 96 1.0 5.0 0.00 0.53 0.53 70 1008.4
20170721184625 84 97 3.0 5.0 0.00 0.53 0.53 75 1008.4
20170721184424 85 103 3.0 5.0 0.00 0.53 0.53 69 1008.3
20170721184324 86 103 2.0 5.0 0.00 0.53 0.53 68 1008.3
20170721184224 85 100 1.0 5.0 0.00 0.53 0.53 71 1008.3
20170721184124 85 91 3.0 5.0 0.00 0.53 0.53 72 1008.5
20170721184025 85 91 2.0 5.0 0.00 0.53 0.53 73 1008.2
20170721183925 85 93 1.0 5.0 0.00 0.53 0.53 72 1008.3
20170721183824 84 100 2.0 5.0 0.00 0.53 0.53 71 1008.1
20170721183425 85 97 2.0 5.0 0.00 0.53 0.53 73 1008.2
20170721183024 83 109 1.0 5.0 0.00 0.53 0.53 74 1008.3
20170721182824 84 115 2.0 5.0 0.00 0.53 0.53 73 1008.2
20170721182625 85 121 3.0 5.0 0.00 0.53 0.53 70 1008.6
20170721182524 85 120 4.0 5.0 0.00 0.53 0.53 70 1008.4
20170721182425 86 117 3.0 5.0 0.00 0.53 0.53 70 1008.2
20170721182324 85 117 3.0 5.0 0.00 0.53 0.53 70 1008.4
20170721182224 86 126 4.0 5.0 0.00 0.53 0.53 75 1008.3
20170721182025 84 143 1.0 5.0 0.00 0.53 0.53 70 1008.4
20170721181925 84 133 4.0 5.0 0.00 0.53 0.53 69 1008.4
20170721181824 85 121 3.0 5.0 0.00 0.53 0.53 68 1008.4
20170721181625 86 133 1.0 5.0 0.00 0.53 0.53 70 1008.5
20170721181525 85 149 1.0 5.0 0.00 0.53 0.53 71 1008.5
20170721181224 86 162 3.0 4.0 0.00 0.53 0.53 70 1008.4
20170721181025 85 166 1.0 3.0 0.00 0.53 0.53 71 1008.7
20170721180824 85 185 2.0 5.0 0.00 0.53 0.53 75 1008.7
20170721180725 85 176 2.0 5.0 0.00 0.53 0.53 75 1008.6
20170721180625 84 176 1.0 5.0 0.00 0.53 0.53 75 1008.6
20170721180524 84 177 1.0 5.0 0.00 0.53 0.53 75 1008.6
20170721180424 84 177 1.0 6.0 0.00 0.53 0.53 75 1008.8
20170721180325 84 167 1.0 6.0 0.00 0.53 0.53 75 1008.6
20170721180125 84 146 1.0 6.0 0.00 0.53 0.53 75 1008.8
20170721180024 84 140 1.0 6.0 0.00 0.53 0.53 75 1008.8
20170721175825 83 134 3.0 7.0 0.00 0.53 0.53 79 1008.8
20170721175725 83 132 4.0 7.0 0.00 0.53 0.53 77 1008.8
20170721175524 83 113 1.0 7.0 0.00 0.53 0.53 78 1008.9
20170721175424 83 101 3.0 7.0 0.00 0.53 0.53 76 1008.8
20170721175325 83 98 3.0 7.0 0.00 0.53 0.53 79 1008.8
20170721175224 83 97 3.0 7.0 0.00 0.53 0.53 79 1008.8
20170721175024 82 86 4.0 7.0 0.00 0.53 0.53 79 1008.7
20170721174924 83 78 3.0 7.0 0.00 0.53 0.53 80 1008.8
20170721174825 83 68 3.0 7.0 0.00 0.53 0.53 81 1008.8
20170721174725 84 76 1.0 7.0 0.00 0.53 0.53 83 1008.8
20170721174624 83 82 1.0 7.0 0.00 0.53 0.53 84 1008.8
20170721174525 82 80 1.0 7.0 0.00 0.53 0.53 83 1008.8
20170721174325 82 84 2.0 7.0 0.00 0.53 0.53 83 1008.8
20170721174125 80 80 1.0 7.0 0.00 0.53 0.53 83 1008.7
20170721174025 80 83 3.0 7.0 0.00 0.53 0.53 84 1008.9
20170721173825 80 93 3.0 7.0 0.00 0.53 0.53 84 1008.9
20170721173524 80 109 3.0 8.0 0.00 0.53 0.53 86 1008.8
20170721173325 80 122 5.0 8.0 0.00 0.53 0.53 86 1008.9
20170721173225 80 128 3.0 8.0 0.00 0.53 0.53 86 1008.8
20170721173124 80 129 4.0 8.0 0.00 0.53 0.53 87 1008.8
20170721173024 80 131 3.0 8.0 0.00 0.53 0.53 87 1008.9
20170721172924 80 124 5.0 8.0 0.00 0.53 0.53 87 1008.9
20170721172824 79 121 3.0 8.0 0.00 0.53 0.53 87 1008.8
20170721172725 79 116 4.0 8.0 0.00 0.53 0.53 86 1008.8
20170721172524 80 115 5.0 7.0 0.00 0.53 0.53 86 1008.8
20170721172424 79 110 2.0 7.0 0.00 0.53 0.53 86 1008.8
20170721172224 79 109 4.0 7.0 0.00 0.53 0.53 87 1008.8
20170721172125 80 111 4.0 7.0 0.00 0.53 0.53 88 1008.7
20170721171824 80 113 4.0 9.0 0.00 0.53 0.53 88 1008.6
20170721171625 79 123 2.0 11.0 0.00 0.53 0.53 88 1008.7
20170721171524 80 113 4.0 11.0 0.00 0.53 0.53 89 1008.7
20170721171325 79 113 3.0 11.0 0.00 0.53 0.53 89 1008.7
20170721171224 79 104 4.0 11.0 0.00 0.53 0.53 88 1008.6
20170721171125 78 103 3.0 11.0 0.00 0.53 0.53 89 1008.5
20170721171025 79 93 6.0 11.0 0.00 0.53 0.53 89 1008.7
20170721170824 78 95 3.0 11.0 0.00 0.53 0.53 89 1008.6
20170721170724 78 93 5.0 11.0 0.00 0.53 0.53 88 1008.6
20170721170525 78 95 5.0 9.0 0.00 0.53 0.53 90 1008.7
20170721170424 78 91 5.0 9.0 0.00 0.53 0.53 91 1008.6
20170721170324 78 95 4.0 9.0 0.00 0.53 0.53 91 1008.8
20170721170224 78 101 3.0 9.0 0.00 0.53 0.53 91 1008.6
20170721170124 78 102 5.0 9.0 0.00 0.53 0.53 93 1008.6
20170721170025 78 104 5.0 9.0 0.00 0.53 0.53 93 1008.5
20170721165925 78 102 2.0 8.0 0.00 0.53 0.53 93 1008.6
20170721165824 78 97 3.0 8.0 0.00 0.53 0.53 93 1008.6
20170721165724 78 99 1.0 8.0 0.00 0.53 0.53 93 1008.5
20170721165624 78 97 3.0 8.0 0.00 0.53 0.53 93 1008.9
20170721165524 78 92 3.0 8.0 0.00 0.53 0.53 93 1008.7
20170721165425 78 91 3.0 9.0 0.00 0.53 0.53 92 1008.7
20170721165324 77 91 6.0 11.0 0.00 0.53 0.53 92 1008.8
20170721165224 77 89 5.0 11.0 0.00 0.53 0.53 92 1008.6
20170721165124 77 85 5.0 11.0 0.00 0.53 0.53 92 1008.7
20170721165024 77 84 5.0 11.0 0.00 0.53 0.53 92 1008.8
20170721164825 77 84 5.0 11.0 0.00 0.53 0.53 92 1009.0
20170721164624 77 77 4.0 11.0 0.00 0.53 0.53 92 1008.9
20170721164424 76 71 5.0 11.0 0.00 0.53 0.53 92 1009.0
20170721164325 77 71 5.0 11.0 0.00 0.53 0.53 92 1009.0
20170721164225 77 70 5.0 11.0 0.00 0.53 0.53 92 1008.9
20170721164125 77 77 7.0 11.0 0.00 0.53 0.53 93 1008.9
20170721163824 78 87 3.0 9.0 0.00 0.53 0.53 94 1008.9
20170721163225 77 102 4.0 9.0 0.00 0.53 0.53 94 1008.9
20170721163125 77 98 6.0 9.0 0.00 0.53 0.53 95 1008.9
20170721163024 77 99 5.0 9.0 0.00 0.53 0.53 95 1009.0
20170721162924 76 100 7.0 9.0 0.00 0.53 0.53 95 1009.1
20170721162825 76 95 5.0 9.0 0.00 0.53 0.53 95 1009.1
20170721162624 76 90 4.0 7.0 0.00 0.53 0.53 95 1009.2
20170721162425 76 92 4.0 7.0 0.00 0.53 0.53 97 1009.1
20170721162324 76 96 3.0 6.0 0.00 0.53 0.53 97 1009.4
20170721162224 76 100 2.0 6.0 0.00 0.53 0.53 98 1009.2
20170721162024 76 111 3.0 6.0 0.00 0.53 0.53 99 1009.2
20170721161924 76 113 2.0 6.0 0.00 0.53 0.53 99 1009.3
20170721161825 76 119 2.0 6.0 0.00 0.53 0.53 99 1009.1
20170721161725 76 125 1.0 6.0 0.00 0.53 0.53 99 1009.1
20170721161624 76 126 0.0 6.0 0.00 0.53 0.53 99 1009.3
20170721161424 75 116 3.0 6.0 0.00 0.53 0.53 99 1009.3
20170721161225 76 95 2.0 5.0 0.00 0.53 0.53 99 1009.1
20170721161125 75 91 1.0 5.0 0.00 0.53 0.53 99 1009.4
20170721160824 75 90 4.0 5.0 0.00 0.53 0.53 99 1009.3
20170721160624 74 86 2.0 5.0 0.00 0.53 0.53 99 1009.4
20170721160024 74 84 2.0 5.0 0.00 0.53 0.53 99 1009.2
20170721155825 73 84 2.0 5.0 0.00 0.53 0.53 99 1009.4
20170721155725 74 84 3.0 5.0 0.00 0.53 0.53 99 1009.1
20170721155624 73 89 2.0 5.0 0.00 0.53 0.53 97 1009.1
20170721155524 74 92 3.0 5.0 0.00 0.53 0.53 99 1009.3
20170721155325 74 106 3.0 5.0 0.00 0.53 0.53 99 1009.3
20170721155124 74 117 2.0 5.0 0.00 0.53 0.53 99 1009.3
20170721155024 74 111 0.0 5.0 0.00 0.53 0.53 99 1009.3
20170721154924 73 106 1.0 5.0 0.00 0.53 0.53 99 1009.2
20170721154824 73 102 0.0 5.0 0.00 0.53 0.53 97 1009.4
20170721154726 73 96 1.0 5.0 0.00 0.53 0.53 97 1009.1
20170721154524 73 94 2.0 5.0 0.00 0.53 0.53 97 1009.0
20170721154424 73 89 1.0 5.0 0.00 0.53 0.53 97 1009.1
20170721154324 73 88 1.0 5.0 0.00 0.53 0.53 97 1009.1
20170721154225 73 87 0.0 5.0 0.00 0.53 0.53 97 1008.9
20170721154125 73 88 3.0 5.0 0.00 0.53 0.53 97 1008.8
20170721154024 73 83 3.0 5.0 0.00 0.53 0.53 97 1008.8
20170721153724 73 66 1.0 5.0 0.00 0.53 0.53 97 1008.7
20170721153524 73 65 1.0 7.0 0.00 0.53 0.53 97 1009.0
20170721153325 73 67 1.0 12.0 0.00 0.53 0.53 97 1008.8
20170721153024 72 73 1.0 12.0 0.00 0.53 0.53 97 1008.9
20170721152925 72 76 1.0 12.0 0.00 0.53 0.53 97 1008.7
20170721152825 72 74 1.0 12.0 0.00 0.53 0.53 97 1008.4
20170721152624 72 80 3.0 12.0 0.00 0.53 0.53 97 1008.4
20170721152524 72 80 4.0 12.0 0.00 0.53 0.53 97 1008.3
20170721152225 72 81 3.0 7.0 0.00 0.53 0.53 97 1008.9
20170721152024 72 72 4.0 7.0 0.00 0.53 0.53 97 1008.9
20170721151824 72 71 3.0 7.0 0.00 0.53 0.53 97 1009.0
20170721151725 72 72 3.0 7.0 0.00 0.53 0.53 97 1009.1
20170721151524 72 74 5.0 7.0 0.00 0.53 0.53 97 1009.1
20170721151424 72 70 3.0 7.0 0.00 0.53 0.53 97 1009.2
20170721151225 72 73 1.0 7.0 0.00 0.53 0.53 97 1009.3
20170721151024 72 83 3.0 6.0 0.00 0.53 0.53 97 1009.4
20170721150924 72 87 2.0 6.0 0.00 0.53 0.53 97 1009.1
20170721150825 72 90 2.0 6.0 0.00 0.53 0.53 97 1009.0
20170721150725 72 87 4.0 6.0 0.00 0.53 0.53 97 1009.1
20170721150624 72 85 2.0 6.0 0.00 0.53 0.53 97 1009.0
20170721150524 72 82 2.0 6.0 0.00 0.53 0.53 97 1009.2
20170721150324 72 81 3.0 6.0 0.00 0.53 0.53 97 1009.0
20170721150224 72 80 2.0 6.0 0.00 0.53 0.53 97 1009.0
20170721150124 72 83 1.0 6.0 0.00 0.53 0.53 97 1008.8
20170721145724 72 68 2.0 5.0 0.01 0.53 0.53 97 1008.7
20170721145624 72 67 1.0 5.0 0.01 0.53 0.53 97 1008.7
20170721145524 72 62 3.0 5.0 0.01 0.53 0.53 97 1008.7
20170721145325 72 70 2.0 5.0 0.01 0.53 0.53 97 1008.8
20170721145225 72 70 2.0 5.0 0.01 0.53 0.53 97 1008.7
20170721145024 72 85 2.0 5.0 0.01 0.53 0.53 97 1008.4
20170721144924 72 84 1.0 5.0 0.01 0.53 0.53 97 1008.7
20170721144825 72 82 3.0 5.0 0.01 0.53 0.53 97 1008.5
20170721144624 72 85 2.0 4.0 0.01 0.53 0.53 97 1008.7
20170721144524 72 89 1.0 4.0 0.02 0.53 0.53 97 1008.9
20170721144424 72 88 2.0 4.0 0.02 0.53 0.53 97 1008.9
20170721144024 72 82 2.0 4.0 0.04 0.53 0.53 97 1008.9
20170721143924 72 81 2.0 4.0 0.04 0.53 0.53 97 1008.8
20170721143725 72 80 1.0 4.0 0.04 0.53 0.53 97 1009.1
20170721143624 72 80 1.0 4.0 0.04 0.53 0.53 97 1009.0
20170721143524 72 80 1.0 4.0 0.04 0.53 0.53 97 1009.0
20170721143424 72 81 2.0 4.0 0.05 0.53 0.53 97 1009.2
20170721143225 72 90 2.0 3.0 0.05 0.53 0.53 97 1009.1
20170721143125 72 93 1.0 3.0 0.05 0.53 0.53 97 1009.4
20170721143024 72 98 1.0 3.0 0.05 0.53 0.53 97 1009.1
20170721142824 72 117 0.0 3.0 0.05 0.53 0.53 97 1009.0
20170721142725 72 122 0.0 3.0 0.05 0.53 0.53 97 1009.2
20170721142624 72 127 0.0 3.0 0.05 0.53 0.53 97 1009.1
20170721142524 72 131 0.0 3.0 0.05 0.53 0.53 97 1009.1
20170721142424 72 138 1.0 3.0 0.05 0.53 0.53 97 1009.1
20170721142224 72 175 0.0 2.0 0.05 0.53 0.53 97 1009.4
20170721142125 72 163 0.0 2.0 0.06 0.53 0.53 97 1009.4
20170721142025 72 152 0.0 2.0 0.06 0.53 0.53 97 1009.4
20170721141624 72 130 0.0 3.0 0.06 0.53 0.53 97 1009.4
20170721141525 72 128 0.0 3.0 0.06 0.53 0.53 97 1009.5
20170721141424 72 124 1.0 3.0 0.06 0.53 0.53 97 1009.7
20170721141324 72 116 1.0 3.0 0.06 0.53 0.53 97 1009.6
20170721141224 72 109 1.0 3.0 0.07 0.53 0.53 97 1009.7
20170721141124 72 110 1.0 3.0 0.07 0.53 0.53 97 1009.7
20170721140925 72 116 2.0 3.0 0.07 0.53 0.53 97 1009.8
20170721140824 72 103 1.0 3.0 0.08 0.53 0.53 97 1009.7
20170721140724 72 90 0.0 1.0 0.09 0.53 0.53 97 1009.8
20170721140624 72 90 0.0 2.0 0.09 0.53 0.53 97 1009.8
20170721140525 72 90 0.0 3.0 0.09 0.53 0.53 97 1009.6
20170721140424 72 90 0.0 3.0 0.13 0.53 0.53 97 1010.0
20170721140324 72 90 0.0 3.0 0.18 0.53 0.53 97 1010.0
20170721140224 72 90 0.0 3.0 0.20 0.53 0.53 97 1009.8
20170721140024 72 91 1.0 3.0 0.26 0.53 0.53 97 1010.0
20170721135925 72 92 0.0 3.0 0.25 0.52 0.52 97 1010.0
20170721135824 72 91 0.0 3.0 0.26 0.52 0.52 97 1010.1
20170721135724 72 91 1.0 3.0 0.28 0.52 0.52 97 1010.0
20170721135624 72 91 1.0 3.0 0.32 0.52 0.52 97 1010.2
20170721135424 72 93 1.0 3.0 0.37 0.52 0.52 97 1010.3
20170721135324 72 90 0.0 3.0 0.39 0.52 0.52 97 1010.1
20170721135226 72 71 0.0 3.0 0.39 0.52 0.52 97 1010.0
20170721135125 72 90 0.0 3.0 0.39 0.52 0.52 97 1009.8
20170721134924 72 121 1.0 3.0 0.43 0.52 0.52 97 1010.0
20170721134824 72 141 1.0 3.0 0.44 0.52 0.52 97 1009.9
20170721134724 72 160 1.0 3.0 0.45 0.52 0.52 97 1009.9
20170721134625 72 177 0.0 3.0 0.45 0.52 0.52 97 1010.0
20170721134424 72 181 0.0 3.0 0.46 0.51 0.51 97 1010.0
20170721134324 72 181 0.0 3.0 0.46 0.51 0.51 97 1010.1
20170721134025 72 181 0.0 2.0 0.46 0.50 0.50 97 1010.2
20170721133924 72 202 0.0 2.0 0.47 0.50 0.50 97 1010.0
20170721133724 72 240 0.0 2.0 0.50 0.50 0.50 97 1010.0
20170721133624 72 252 0.0 2.0 0.50 0.50 0.50 97 1010.2
20170721133324 72 277 0.0 2.0 0.48 0.48 0.48 97 1010.2
20170721133224 72 275 0.0 2.0 0.48 0.48 0.48 97 1010.0
20170721133024 72 277 0.0 3.0 0.48 0.48 0.48 97 1010.3
20170721132924 72 279 1.0 5.0 0.48 0.48 0.48 97 1010.3
20170721132824 72 278 1.0 5.0 0.48 0.48 0.48 97 1010.3
20170721132725 72 285 1.0 5.0 0.48 0.48 0.48 97 1010.4
20170721132624 72 292 1.0 5.0 0.48 0.48 0.48 97 1010.0
20170721132524 72 294 1.0 5.0 0.48 0.48 0.48 97 1010.4
20170721132424 72 299 1.0 5.0 0.48 0.48 0.48 97 1010.3
20170721132324 72 300 1.0 5.0 0.48 0.48 0.48 97 1010.3
20170721132224 72 298 1.0 5.0 0.47 0.47 0.47 97 1010.3
20170721132125 72 296 1.0 5.0 0.47 0.47 0.47 97 1010.1
20170721132024 72 296 1.0 5.0 0.47 0.47 0.47 97 1010.1
20170721131824 72 303 3.0 5.0 0.47 0.47 0.47 97 1009.8
20170721131324 72 288 1.0 5.0 0.47 0.47 0.47 97 1010.1
20170721131225 72 285 3.0 5.0 0.46 0.46 0.46 97 1010.0
20170721131124 72 279 1.0 5.0 0.46 0.46 0.46 97 1010.1
20170721131024 72 255 0.0 5.0 0.46 0.46 0.46 97 1010.0
20170721130924 72 246 0.0 5.0 0.45 0.45 0.45 97 1009.9
20170721130624 72 185 2.0 9.0 0.44 0.44 0.44 97 1010.0
20170721130524 72 172 3.0 9.0 0.40 0.40 0.40 97 1010.2
20170721130424 72 177 1.0 9.0 0.38 0.38 0.38 97 1010.0
20170721130324 72 174 3.0 9.0 0.35 0.35 0.35 97 1010.1
20170721130224 72 167 1.0 9.0 0.33 0.33 0.33 97 1010.1
20170721130124 72 161 3.0 9.0 0.30 0.30 0.30 97 1010.3
20170721130024 72 160 2.0 9.0 0.27 0.27 0.27 97 1010.4
20170721125925 72 170 1.0 9.0 0.26 0.26 0.26 97 1010.3
20170721125824 72 171 3.0 9.0 0.24 0.24 0.24 97 1010.5
20170721125724 72 157 1.0 7.0 0.20 0.20 0.20 97 1010.5
20170721125624 72 169 1.0 7.0 0.19 0.19 0.19 97 1010.4
20170721125424 72 179 3.0 7.0 0.15 0.15 0.15 97 1010.5
20170721125224 73 130 1.0 10.0 0.13 0.13 0.13 97 1010.5
20170721125124 73 126 1.0 10.0 0.12 0.12 0.12 97 1010.3
20170721125025 73 105 3.0 15.0 0.11 0.11 0.11 97 1010.4
20170721124924 73 122 2.0 15.0 0.09 0.09 0.09 97 1010.6
20170721124824 73 131 3.0 15.0 0.08 0.08 0.08 97 1010.5
20170721124624 73 152 3.0 15.0 0.07 0.07 0.07 97 1010.6
20170721124425 73 139 1.0 15.0 0.05 0.05 0.05 96 1010.2
20170721124325 74 138 3.0 15.0 0.05 0.05 0.05 96 1010.4
20170721124224 74 173 6.0 15.0 0.05 0.05 0.05 95 1010.1
20170721123825 76 236 1.0 15.0 0.01 0.01 0.01 91 1010.1
20170721123724 76 237 4.0 15.0 0.00 0.00 0.00 89 1010.0
20170721123624 77 263 4.0 15.0 0.00 0.00 0.00 87 1009.8
20170721123524 77 265 6.0 15.0 0.00 0.00 0.00 87 1009.8